sensor_id;sensor_type;location;lat;lon;timestamp;P1;durP1;ratioP1;P2;durP2;ratioP2
37955;SDS011;23776;51.592;7.180;2024-02-14T00:01:16;16.58;;;3.53;;
37955;SDS011;23776;51.592;7.180;2024-02-14T00:03:41;4.47;;;2.67;;
37955;SDS011;23776;51.592;7.180;2024-02-14T00:06:07;8.57;;;3.15;;
37955;SDS011;23776;51.592;7.180;2024-02-14T00:08:33;6.28;;;2.90;;
37955;SDS011;23776;51.592;7.180;2024-02-14T00:10:58;6.57;;;3.58;;
37955;SDS011;23776;51.592;7.180;2024-02-14T00:13:25;7.65;;;3.38;;
37955;SDS011;23776;51.592;7.180;2024-02-14T00:15:51;6.82;;;3.78;;
37955;SDS011;23776;51.592;7.180;2024-02-14T00:18:17;7.38;;;2.58;;
37955;SDS011;23776;51.592;7.180;2024-02-14T00:20:44;8.38;;;2.95;;
37955;SDS011;23776;51.592;7.180;2024-02-14T00:23:09;5.57;;;3.08;;
37955;SDS011;23776;51.592;7.180;2024-02-14T00:25:36;8.07;;;3.00;;
37955;SDS011;23776;51.592;7.180;2024-02-14T00:28:02;12.55;;;2.95;;
37955;SDS011;23776;51.592;7.180;2024-02-14T00:30:28;6.65;;;2.85;;
37955;SDS011;23776;51.592;7.180;2024-02-14T00:32:54;4.45;;;2.65;;
37955;SDS011;23776;51.592;7.180;2024-02-14T00:35:20;6.18;;;2.63;;
37955;SDS011;23776;51.592;7.180;2024-02-14T00:37:46;6.93;;;3.17;;
37955;SDS011;23776;51.592;7.180;2024-02-14T00:40:12;7.63;;;2.75;;
37955;SDS011;23776;51.592;7.180;2024-02-14T00:42:38;7.97;;;3.22;;
37955;SDS011;23776;51.592;7.180;2024-02-14T00:45:03;8.63;;;2.80;;
37955;SDS011;23776;51.592;7.180;2024-02-14T00:47:32;10.55;;;2.90;;
37955;SDS011;23776;51.592;7.180;2024-02-14T00:49:58;6.72;;;2.40;;
37955;SDS011;23776;51.592;7.180;2024-02-14T00:52:23;6.93;;;2.25;;
37955;SDS011;23776;51.592;7.180;2024-02-14T00:54:49;5.80;;;2.25;;
37955;SDS011;23776;51.592;7.180;2024-02-14T00:57:14;7.97;;;2.65;;
37955;SDS011;23776;51.592;7.180;2024-02-14T00:59:40;6.00;;;2.50;;
37955;SDS011;23776;51.592;7.180;2024-02-14T01:02:06;8.20;;;2.42;;
37955;SDS011;23776;51.592;7.180;2024-02-14T01:04:32;11.45;;;2.40;;
37955;SDS011;23776;51.592;7.180;2024-02-14T01:06:57;7.45;;;2.55;;
37955;SDS011;23776;51.592;7.180;2024-02-14T01:09:23;6.88;;;2.30;;
37955;SDS011;23776;51.592;7.180;2024-02-14T01:11:49;6.47;;;3.25;;
37955;SDS011;23776;51.592;7.180;2024-02-14T01:14:15;5.22;;;2.58;;
37955;SDS011;23776;51.592;7.180;2024-02-14T01:16:44;4.68;;;2.20;;
37955;SDS011;23776;51.592;7.180;2024-02-14T01:19:10;7.03;;;2.63;;
37955;SDS011;23776;51.592;7.180;2024-02-14T01:21:36;4.90;;;2.50;;
37955;SDS011;23776;51.592;7.180;2024-02-14T01:24:02;7.30;;;2.92;;
37955;SDS011;23776;51.592;7.180;2024-02-14T01:26:30;5.78;;;3.25;;
37955;SDS011;23776;51.592;7.180;2024-02-14T01:28:55;6.78;;;2.65;;
37955;SDS011;23776;51.592;7.180;2024-02-14T01:31:21;9.68;;;3.13;;
37955;SDS011;23776;51.592;7.180;2024-02-14T01:33:47;8.15;;;2.58;;
37955;SDS011;23776;51.592;7.180;2024-02-14T01:36:13;12.45;;;2.80;;
37955;SDS011;23776;51.592;7.180;2024-02-14T01:38:38;12.65;;;2.85;;
37955;SDS011;23776;51.592;7.180;2024-02-14T01:41:04;6.75;;;3.13;;
37955;SDS011;23776;51.592;7.180;2024-02-14T01:43:31;3.35;;;2.30;;
37955;SDS011;23776;51.592;7.180;2024-02-14T01:46:04;8.57;;;2.65;;
37955;SDS011;23776;51.592;7.180;2024-02-14T01:48:31;5.10;;;2.50;;
37955;SDS011;23776;51.592;7.180;2024-02-14T01:50:57;6.03;;;1.98;;
37955;SDS011;23776;51.592;7.180;2024-02-14T01:53:24;8.98;;;2.45;;
37955;SDS011;23776;51.592;7.180;2024-02-14T01:55:50;8.02;;;2.47;;
37955;SDS011;23776;51.592;7.180;2024-02-14T01:58:16;11.63;;;2.65;;
37955;SDS011;23776;51.592;7.180;2024-02-14T02:00:42;4.82;;;2.30;;
37955;SDS011;23776;51.592;7.180;2024-02-14T02:03:09;9.82;;;2.58;;
37955;SDS011;23776;51.592;7.180;2024-02-14T02:05:35;5.57;;;2.33;;
37955;SDS011;23776;51.592;7.180;2024-02-14T02:08:01;9.68;;;2.63;;
37955;SDS011;23776;51.592;7.180;2024-02-14T02:10:27;3.67;;;1.98;;
37955;SDS011;23776;51.592;7.180;2024-02-14T02:12:57;5.22;;;2.20;;
37955;SDS011;23776;51.592;7.180;2024-02-14T02:15:24;7.03;;;2.30;;
37955;SDS011;23776;51.592;7.180;2024-02-14T02:17:50;5.03;;;2.15;;
37955;SDS011;23776;51.592;7.180;2024-02-14T02:20:18;5.72;;;2.20;;
37955;SDS011;23776;51.592;7.180;2024-02-14T02:22:45;4.53;;;2.17;;
37955;SDS011;23776;51.592;7.180;2024-02-14T02:25:13;3.25;;;1.90;;
37955;SDS011;23776;51.592;7.180;2024-02-14T02:27:38;5.05;;;1.90;;
37955;SDS011;23776;51.592;7.180;2024-02-14T02:30:07;6.28;;;2.10;;
37955;SDS011;23776;51.592;7.180;2024-02-14T02:32:33;6.85;;;2.03;;
37955;SDS011;23776;51.592;7.180;2024-02-14T02:34:59;3.85;;;1.85;;
37955;SDS011;23776;51.592;7.180;2024-02-14T02:37:26;4.78;;;1.83;;
37955;SDS011;23776;51.592;7.180;2024-02-14T02:39:54;2.40;;;1.80;;
37955;SDS011;23776;51.592;7.180;2024-02-14T02:42:21;8.77;;;2.45;;
37955;SDS011;23776;51.592;7.180;2024-02-14T02:44:47;4.90;;;1.70;;
37955;SDS011;23776;51.592;7.180;2024-02-14T02:47:14;5.30;;;1.85;;
37955;SDS011;23776;51.592;7.180;2024-02-14T02:49:41;7.45;;;2.30;;
37955;SDS011;23776;51.592;7.180;2024-02-14T02:52:09;6.47;;;1.98;;
37955;SDS011;23776;51.592;7.180;2024-02-14T02:54:35;8.20;;;1.80;;
37955;SDS011;23776;51.592;7.180;2024-02-14T02:57:01;4.07;;;1.33;;
37955;SDS011;23776;51.592;7.180;2024-02-14T02:59:28;4.45;;;1.98;;
37955;SDS011;23776;51.592;7.180;2024-02-14T03:01:57;4.80;;;1.73;;
37955;SDS011;23776;51.592;7.180;2024-02-14T03:04:24;4.97;;;1.88;;
37955;SDS011;23776;51.592;7.180;2024-02-14T03:06:49;7.53;;;2.00;;
37955;SDS011;23776;51.592;7.180;2024-02-14T03:09:15;3.50;;;2.03;;
37955;SDS011;23776;51.592;7.180;2024-02-14T03:11:45;3.47;;;1.48;;
37955;SDS011;23776;51.592;7.180;2024-02-14T03:14:12;3.20;;;1.55;;
37955;SDS011;23776;51.592;7.180;2024-02-14T03:16:38;4.80;;;1.77;;
37955;SDS011;23776;51.592;7.180;2024-02-14T03:19:04;3.03;;;1.50;;
37955;SDS011;23776;51.592;7.180;2024-02-14T03:21:30;4.57;;;1.58;;
37955;SDS011;23776;51.592;7.180;2024-02-14T03:23:57;4.38;;;1.40;;
37955;SDS011;23776;51.592;7.180;2024-02-14T03:26:23;6.40;;;2.13;;
37955;SDS011;23776;51.592;7.180;2024-02-14T03:28:49;4.38;;;1.55;;
37955;SDS011;23776;51.592;7.180;2024-02-14T03:31:14;2.40;;;1.10;;
37955;SDS011;23776;51.592;7.180;2024-02-14T03:33:40;4.63;;;2.60;;
37955;SDS011;23776;51.592;7.180;2024-02-14T03:36:06;3.35;;;1.85;;
37955;SDS011;23776;51.592;7.180;2024-02-14T03:38:33;7.57;;;1.73;;
37955;SDS011;23776;51.592;7.180;2024-02-14T03:40:59;3.95;;;1.55;;
37955;SDS011;23776;51.592;7.180;2024-02-14T03:43:24;4.53;;;1.38;;
37955;SDS011;23776;51.592;7.180;2024-02-14T03:45:50;2.72;;;1.67;;
37955;SDS011;23776;51.592;7.180;2024-02-14T03:48:19;4.50;;;1.80;;
37955;SDS011;23776;51.592;7.180;2024-02-14T03:50:45;2.78;;;1.52;;
37955;SDS011;23776;51.592;7.180;2024-02-14T03:53:11;6.28;;;2.10;;
37955;SDS011;23776;51.592;7.180;2024-02-14T03:55:37;6.82;;;1.60;;
37955;SDS011;23776;51.592;7.180;2024-02-14T03:58:03;4.85;;;1.63;;
37955;SDS011;23776;51.592;7.180;2024-02-14T04:00:30;2.45;;;1.50;;
37955;SDS011;23776;51.592;7.180;2024-02-14T04:02:56;5.72;;;1.80;;
37955;SDS011;23776;51.592;7.180;2024-02-14T04:05:25;4.82;;;1.77;;
37955;SDS011;23776;51.592;7.180;2024-02-14T04:07:54;4.03;;;2.00;;
37955;SDS011;23776;51.592;7.180;2024-02-14T04:10:20;6.70;;;1.92;;
37955;SDS011;23776;51.592;7.180;2024-02-14T04:12:46;8.93;;;2.25;;
37955;SDS011;23776;51.592;7.180;2024-02-14T04:15:12;6.35;;;1.88;;
37955;SDS011;23776;51.592;7.180;2024-02-14T04:17:39;3.97;;;2.10;;
37955;SDS011;23776;51.592;7.180;2024-02-14T04:20:04;4.75;;;1.95;;
37955;SDS011;23776;51.592;7.180;2024-02-14T04:22:30;4.50;;;1.90;;
37955;SDS011;23776;51.592;7.180;2024-02-14T04:24:56;8.07;;;2.45;;
37955;SDS011;23776;51.592;7.180;2024-02-14T04:27:22;3.85;;;1.85;;
37955;SDS011;23776;51.592;7.180;2024-02-14T04:29:47;5.97;;;2.58;;
37955;SDS011;23776;51.592;7.180;2024-02-14T04:32:14;6.85;;;2.30;;
37955;SDS011;23776;51.592;7.180;2024-02-14T04:34:39;3.88;;;1.90;;
37955;SDS011;23776;51.592;7.180;2024-02-14T04:37:06;10.23;;;2.42;;
37955;SDS011;23776;51.592;7.180;2024-02-14T04:39:38;4.03;;;2.33;;
37955;SDS011;23776;51.592;7.180;2024-02-14T04:42:04;9.38;;;2.45;;
37955;SDS011;23776;51.592;7.180;2024-02-14T04:44:30;5.43;;;2.58;;
37955;SDS011;23776;51.592;7.180;2024-02-14T04:46:56;4.63;;;1.90;;
37955;SDS011;23776;51.592;7.180;2024-02-14T04:49:23;3.15;;;1.88;;
37955;SDS011;23776;51.592;7.180;2024-02-14T04:51:49;4.65;;;2.22;;
37955;SDS011;23776;51.592;7.180;2024-02-14T04:54:18;5.35;;;2.25;;
37955;SDS011;23776;51.592;7.180;2024-02-14T04:56:44;6.47;;;2.47;;
37955;SDS011;23776;51.592;7.180;2024-02-14T04:59:10;4.93;;;2.28;;
37955;SDS011;23776;51.592;7.180;2024-02-14T05:01:36;5.75;;;2.05;;
37955;SDS011;23776;51.592;7.180;2024-02-14T05:04:01;7.00;;;2.55;;
37955;SDS011;23776;51.592;7.180;2024-02-14T05:06:28;4.15;;;2.33;;
37955;SDS011;23776;51.592;7.180;2024-02-14T05:08:53;4.30;;;2.17;;
37955;SDS011;23776;51.592;7.180;2024-02-14T05:11:19;6.95;;;2.70;;
37955;SDS011;23776;51.592;7.180;2024-02-14T05:13:44;4.95;;;2.80;;
37955;SDS011;23776;51.592;7.180;2024-02-14T05:16:11;10.63;;;3.05;;
37955;SDS011;23776;51.592;7.180;2024-02-14T05:18:37;6.85;;;3.53;;
37955;SDS011;23776;51.592;7.180;2024-02-14T05:21:06;7.20;;;3.42;;
37955;SDS011;23776;51.592;7.180;2024-02-14T05:23:33;7.90;;;3.45;;
37955;SDS011;23776;51.592;7.180;2024-02-14T05:25:59;8.52;;;3.53;;
37955;SDS011;23776;51.592;7.180;2024-02-14T05:28:27;5.43;;;3.40;;
37955;SDS011;23776;51.592;7.180;2024-02-14T05:30:53;7.97;;;3.20;;
37955;SDS011;23776;51.592;7.180;2024-02-14T05:33:19;5.15;;;3.03;;
37955;SDS011;23776;51.592;7.180;2024-02-14T05:35:47;6.35;;;3.70;;
37955;SDS011;23776;51.592;7.180;2024-02-14T05:38:14;7.32;;;3.53;;
37955;SDS011;23776;51.592;7.180;2024-02-14T05:40:39;8.73;;;4.30;;
37955;SDS011;23776;51.592;7.180;2024-02-14T05:43:05;7.95;;;3.70;;
37955;SDS011;23776;51.592;7.180;2024-02-14T05:45:32;7.57;;;3.78;;
37955;SDS011;23776;51.592;7.180;2024-02-14T05:47:58;7.45;;;3.60;;
37955;SDS011;23776;51.592;7.180;2024-02-14T05:50:23;13.10;;;4.03;;
37955;SDS011;23776;51.592;7.180;2024-02-14T05:52:49;8.07;;;3.97;;
37955;SDS011;23776;51.592;7.180;2024-02-14T05:55:15;9.00;;;3.67;;
37955;SDS011;23776;51.592;7.180;2024-02-14T05:57:40;8.77;;;3.45;;
37955;SDS011;23776;51.592;7.180;2024-02-14T06:00:06;6.60;;;3.90;;
37955;SDS011;23776;51.592;7.180;2024-02-14T06:02:34;7.03;;;4.20;;
37955;SDS011;23776;51.592;7.180;2024-02-14T06:04:59;7.07;;;3.65;;
37955;SDS011;23776;51.592;7.180;2024-02-14T06:07:25;7.38;;;4.03;;
37955;SDS011;23776;51.592;7.180;2024-02-14T06:09:50;6.05;;;3.67;;
37955;SDS011;23776;51.592;7.180;2024-02-14T06:12:16;8.13;;;3.90;;
37955;SDS011;23776;51.592;7.180;2024-02-14T06:14:41;12.48;;;4.30;;
37955;SDS011;23776;51.592;7.180;2024-02-14T06:17:07;7.38;;;4.00;;
37955;SDS011;23776;51.592;7.180;2024-02-14T06:19:33;6.53;;;3.67;;
37955;SDS011;23776;51.592;7.180;2024-02-14T06:22:00;7.03;;;3.80;;
37955;SDS011;23776;51.592;7.180;2024-02-14T06:24:25;7.15;;;3.85;;
37955;SDS011;23776;51.592;7.180;2024-02-14T06:26:51;8.57;;;4.35;;
37955;SDS011;23776;51.592;7.180;2024-02-14T06:29:16;9.00;;;4.47;;
37955;SDS011;23776;51.592;7.180;2024-02-14T06:31:42;12.43;;;5.03;;
37955;SDS011;23776;51.592;7.180;2024-02-14T06:34:07;9.88;;;4.90;;
37955;SDS011;23776;51.592;7.180;2024-02-14T06:36:33;10.73;;;4.82;;
37955;SDS011;23776;51.592;7.180;2024-02-14T06:38:59;11.90;;;5.68;;
37955;SDS011;23776;51.592;7.180;2024-02-14T06:41:24;8.98;;;5.45;;
37955;SDS011;23776;51.592;7.180;2024-02-14T06:43:50;9.52;;;5.35;;
37955;SDS011;23776;51.592;7.180;2024-02-14T06:46:16;10.80;;;5.28;;
37955;SDS011;23776;51.592;7.180;2024-02-14T06:48:41;7.18;;;5.25;;
37955;SDS011;23776;51.592;7.180;2024-02-14T06:51:07;9.70;;;5.95;;
37955;SDS011;23776;51.592;7.180;2024-02-14T06:53:33;13.75;;;5.72;;
37955;SDS011;23776;51.592;7.180;2024-02-14T06:55:58;13.30;;;6.40;;
37955;SDS011;23776;51.592;7.180;2024-02-14T06:58:24;8.90;;;5.75;;
37955;SDS011;23776;51.592;7.180;2024-02-14T07:00:49;8.50;;;5.28;;
37955;SDS011;23776;51.592;7.180;2024-02-14T07:03:15;12.98;;;6.43;;
37955;SDS011;23776;51.592;7.180;2024-02-14T07:05:41;11.98;;;6.25;;
37955;SDS011;23776;51.592;7.180;2024-02-14T07:08:07;12.20;;;6.00;;
37955;SDS011;23776;51.592;7.180;2024-02-14T07:10:32;8.45;;;5.65;;
37955;SDS011;23776;51.592;7.180;2024-02-14T07:12:58;9.07;;;6.20;;
37955;SDS011;23776;51.592;7.180;2024-02-14T07:15:24;11.18;;;6.63;;
37955;SDS011;23776;51.592;7.180;2024-02-14T07:17:53;14.68;;;7.40;;
37955;SDS011;23776;51.592;7.180;2024-02-14T07:20:22;12.55;;;7.97;;
37955;SDS011;23776;51.592;7.180;2024-02-14T07:22:50;11.82;;;7.50;;
37955;SDS011;23776;51.592;7.180;2024-02-14T07:25:18;16.95;;;7.18;;
37955;SDS011;23776;51.592;7.180;2024-02-14T07:27:44;13.40;;;7.05;;
37955;SDS011;23776;51.592;7.180;2024-02-14T07:30:11;13.00;;;7.88;;
37955;SDS011;23776;51.592;7.180;2024-02-14T07:32:37;14.07;;;7.47;;
37955;SDS011;23776;51.592;7.180;2024-02-14T07:35:03;12.77;;;8.13;;
37955;SDS011;23776;51.592;7.180;2024-02-14T07:37:30;13.48;;;7.50;;
37955;SDS011;23776;51.592;7.180;2024-02-14T07:39:55;13.40;;;7.70;;
37955;SDS011;23776;51.592;7.180;2024-02-14T07:42:21;17.25;;;7.72;;
37955;SDS011;23776;51.592;7.180;2024-02-14T07:44:47;12.25;;;7.68;;
37955;SDS011;23776;51.592;7.180;2024-02-14T07:47:12;14.85;;;7.75;;
37955;SDS011;23776;51.592;7.180;2024-02-14T07:49:39;13.18;;;7.57;;
37955;SDS011;23776;51.592;7.180;2024-02-14T07:52:06;17.38;;;8.15;;
37955;SDS011;23776;51.592;7.180;2024-02-14T07:54:31;15.63;;;7.18;;
37955;SDS011;23776;51.592;7.180;2024-02-14T07:56:57;14.70;;;7.63;;
37955;SDS011;23776;51.592;7.180;2024-02-14T07:59:23;14.90;;;7.70;;
37955;SDS011;23776;51.592;7.180;2024-02-14T08:01:48;15.52;;;7.82;;
37955;SDS011;23776;51.592;7.180;2024-02-14T08:04:14;18.63;;;8.48;;
37955;SDS011;23776;51.592;7.180;2024-02-14T08:06:40;13.00;;;7.93;;
37955;SDS011;23776;51.592;7.180;2024-02-14T08:09:06;15.70;;;7.93;;
37955;SDS011;23776;51.592;7.180;2024-02-14T08:11:34;15.05;;;7.90;;
37955;SDS011;23776;51.592;7.180;2024-02-14T08:14:00;16.83;;;8.45;;
37955;SDS011;23776;51.592;7.180;2024-02-14T08:16:27;15.82;;;8.07;;
37955;SDS011;23776;51.592;7.180;2024-02-14T08:18:52;13.82;;;7.20;;
37955;SDS011;23776;51.592;7.180;2024-02-14T08:21:24;15.23;;;7.85;;
37955;SDS011;23776;51.592;7.180;2024-02-14T08:23:50;15.27;;;7.50;;
37955;SDS011;23776;51.592;7.180;2024-02-14T08:26:17;12.50;;;7.45;;
37955;SDS011;23776;51.592;7.180;2024-02-14T08:28:42;15.60;;;8.10;;
37955;SDS011;23776;51.592;7.180;2024-02-14T08:31:11;13.38;;;7.22;;
37955;SDS011;23776;51.592;7.180;2024-02-14T08:33:37;13.45;;;7.63;;
37955;SDS011;23776;51.592;7.180;2024-02-14T08:36:03;13.05;;;7.57;;
37955;SDS011;23776;51.592;7.180;2024-02-14T08:38:29;14.48;;;7.22;;
37955;SDS011;23776;51.592;7.180;2024-02-14T08:40:55;11.55;;;6.47;;
37955;SDS011;23776;51.592;7.180;2024-02-14T08:43:22;17.58;;;6.38;;
37955;SDS011;23776;51.592;7.180;2024-02-14T08:45:50;12.43;;;5.90;;
37955;SDS011;23776;51.592;7.180;2024-02-14T08:48:16;12.40;;;6.28;;
37955;SDS011;23776;51.592;7.180;2024-02-14T08:50:42;12.18;;;6.32;;
37955;SDS011;23776;51.592;7.180;2024-02-14T08:53:08;14.38;;;5.95;;
37955;SDS011;23776;51.592;7.180;2024-02-14T08:55:35;11.98;;;5.90;;
37955;SDS011;23776;51.592;7.180;2024-02-14T08:58:01;12.98;;;5.25;;
37955;SDS011;23776;51.592;7.180;2024-02-14T09:00:27;8.18;;;4.82;;
37955;SDS011;23776;51.592;7.180;2024-02-14T09:02:52;9.73;;;5.00;;
37955;SDS011;23776;51.592;7.180;2024-02-14T09:05:18;10.25;;;5.25;;
37955;SDS011;23776;51.592;7.180;2024-02-14T09:07:44;10.57;;;4.68;;
37955;SDS011;23776;51.592;7.180;2024-02-14T09:10:09;9.68;;;4.63;;
37955;SDS011;23776;51.592;7.180;2024-02-14T09:12:37;11.90;;;4.70;;
37955;SDS011;23776;51.592;7.180;2024-02-14T09:15:04;10.73;;;4.25;;
37955;SDS011;23776;51.592;7.180;2024-02-14T09:17:30;14.57;;;5.05;;
37955;SDS011;23776;51.592;7.180;2024-02-14T09:19:55;15.38;;;5.70;;
37955;SDS011;23776;51.592;7.180;2024-02-14T09:22:21;9.20;;;5.38;;
37955;SDS011;23776;51.592;7.180;2024-02-14T09:24:47;8.68;;;4.90;;
37955;SDS011;23776;51.592;7.180;2024-02-14T09:27:13;9.38;;;5.30;;
37955;SDS011;23776;51.592;7.180;2024-02-14T09:29:39;9.90;;;5.03;;
37955;SDS011;23776;51.592;7.180;2024-02-14T09:32:05;10.57;;;4.97;;
37955;SDS011;23776;51.592;7.180;2024-02-14T09:34:30;12.23;;;5.30;;
37955;SDS011;23776;51.592;7.180;2024-02-14T09:36:56;10.50;;;5.80;;
37955;SDS011;23776;51.592;7.180;2024-02-14T09:39:23;10.82;;;4.75;;
37955;SDS011;23776;51.592;7.180;2024-02-14T09:41:54;14.23;;;4.75;;
37955;SDS011;23776;51.592;7.180;2024-02-14T09:44:24;14.05;;;4.97;;
37955;SDS011;23776;51.592;7.180;2024-02-14T09:46:53;9.15;;;4.57;;
37955;SDS011;23776;51.592;7.180;2024-02-14T09:49:20;9.10;;;4.35;;
37955;SDS011;23776;51.592;7.180;2024-02-14T09:51:46;9.27;;;4.47;;
37955;SDS011;23776;51.592;7.180;2024-02-14T09:54:14;11.75;;;4.55;;
37955;SDS011;23776;51.592;7.180;2024-02-14T09:56:41;7.78;;;4.88;;
37955;SDS011;23776;51.592;7.180;2024-02-14T09:59:12;14.15;;;4.45;;
37955;SDS011;23776;51.592;7.180;2024-02-14T10:01:40;10.68;;;5.10;;
37955;SDS011;23776;51.592;7.180;2024-02-14T10:04:06;6.20;;;3.60;;
37955;SDS011;23776;51.592;7.180;2024-02-14T10:06:32;8.57;;;4.40;;
37955;SDS011;23776;51.592;7.180;2024-02-14T10:08:58;8.38;;;4.10;;
37955;SDS011;23776;51.592;7.180;2024-02-14T10:11:24;10.75;;;4.28;;
37955;SDS011;23776;51.592;7.180;2024-02-14T10:13:52;15.32;;;4.28;;
37955;SDS011;23776;51.592;7.180;2024-02-14T10:16:19;9.13;;;3.95;;
37955;SDS011;23776;51.592;7.180;2024-02-14T10:18:45;11.55;;;4.30;;
37955;SDS011;23776;51.592;7.180;2024-02-14T10:21:15;12.65;;;4.63;;
37955;SDS011;23776;51.592;7.180;2024-02-14T10:23:43;10.32;;;3.83;;
37955;SDS011;23776;51.592;7.180;2024-02-14T10:26:10;11.15;;;4.40;;
37955;SDS011;23776;51.592;7.180;2024-02-14T10:28:36;10.02;;;4.07;;
37955;SDS011;23776;51.592;7.180;2024-02-14T10:31:01;13.35;;;5.00;;
37955;SDS011;23776;51.592;7.180;2024-02-14T10:33:27;12.82;;;4.97;;
37955;SDS011;23776;51.592;7.180;2024-02-14T10:35:54;10.38;;;4.55;;
37955;SDS011;23776;51.592;7.180;2024-02-14T10:38:22;10.55;;;4.38;;
37955;SDS011;23776;51.592;7.180;2024-02-14T10:40:49;11.32;;;3.92;;
37955;SDS011;23776;51.592;7.180;2024-02-14T10:43:16;10.73;;;4.45;;
37955;SDS011;23776;51.592;7.180;2024-02-14T10:45:42;12.07;;;4.75;;
37955;SDS011;23776;51.592;7.180;2024-02-14T10:48:11;15.18;;;4.38;;
37955;SDS011;23776;51.592;7.180;2024-02-14T10:50:37;9.38;;;4.05;;
37955;SDS011;23776;51.592;7.180;2024-02-14T10:53:06;9.20;;;4.45;;
37955;SDS011;23776;51.592;7.180;2024-02-14T10:55:37;8.13;;;4.00;;
37955;SDS011;23776;51.592;7.180;2024-02-14T10:58:07;9.45;;;4.07;;
37955;SDS011;23776;51.592;7.180;2024-02-14T11:00:35;8.48;;;4.35;;
37955;SDS011;23776;51.592;7.180;2024-02-14T11:03:01;10.50;;;4.10;;
37955;SDS011;23776;51.592;7.180;2024-02-14T11:05:27;11.65;;;3.85;;
37955;SDS011;23776;51.592;7.180;2024-02-14T11:07:53;12.88;;;4.50;;
37955;SDS011;23776;51.592;7.180;2024-02-14T11:10:19;14.70;;;4.32;;
37955;SDS011;23776;51.592;7.180;2024-02-14T11:12:46;12.75;;;4.35;;
37955;SDS011;23776;51.592;7.180;2024-02-14T11:15:17;8.10;;;3.88;;
37955;SDS011;23776;51.592;7.180;2024-02-14T11:17:47;16.85;;;4.28;;
37955;SDS011;23776;51.592;7.180;2024-02-14T11:20:20;13.80;;;3.80;;
37955;SDS011;23776;51.592;7.180;2024-02-14T11:22:56;9.82;;;4.10;;
37955;SDS011;23776;51.592;7.180;2024-02-14T11:25:23;8.20;;;4.13;;
37955;SDS011;23776;51.592;7.180;2024-02-14T11:27:54;9.55;;;4.10;;
37955;SDS011;23776;51.592;7.180;2024-02-14T11:30:31;6.80;;;3.78;;
37955;SDS011;23776;51.592;7.180;2024-02-14T11:33:14;9.70;;;3.83;;
37955;SDS011;23776;51.592;7.180;2024-02-14T11:35:49;12.68;;;3.97;;
37955;SDS011;23776;51.592;7.180;2024-02-14T11:38:18;7.57;;;3.85;;
37955;SDS011;23776;51.592;7.180;2024-02-14T11:40:44;9.88;;;3.95;;
37955;SDS011;23776;51.592;7.180;2024-02-14T11:43:19;9.38;;;4.15;;
37955;SDS011;23776;51.592;7.180;2024-02-14T11:45:45;11.20;;;4.50;;
37955;SDS011;23776;51.592;7.180;2024-02-14T11:48:16;13.25;;;3.85;;
37955;SDS011;23776;51.592;7.180;2024-02-14T11:50:44;12.60;;;4.18;;
37955;SDS011;23776;51.592;7.180;2024-02-14T11:53:10;13.02;;;3.95;;
37955;SDS011;23776;51.592;7.180;2024-02-14T11:55:37;8.90;;;3.42;;
37955;SDS011;23776;51.592;7.180;2024-02-14T11:58:09;7.60;;;3.60;;
37955;SDS011;23776;51.592;7.180;2024-02-14T12:00:39;13.05;;;4.20;;
37955;SDS011;23776;51.592;7.180;2024-02-14T12:03:10;7.47;;;3.83;;
37955;SDS011;23776;51.592;7.180;2024-02-14T12:05:47;9.15;;;3.78;;
37955;SDS011;23776;51.592;7.180;2024-02-14T12:08:15;9.25;;;3.15;;
37955;SDS011;23776;51.592;7.180;2024-02-14T12:10:43;7.93;;;3.50;;
37955;SDS011;23776;51.592;7.180;2024-02-14T12:13:13;8.70;;;3.30;;
37955;SDS011;23776;51.592;7.180;2024-02-14T12:15:46;10.30;;;3.50;;
37955;SDS011;23776;51.592;7.180;2024-02-14T12:20:39;11.13;;;3.13;;
37955;SDS011;23776;51.592;7.180;2024-02-14T12:23:05;6.53;;;3.15;;
37955;SDS011;23776;51.592;7.180;2024-02-14T12:25:31;9.20;;;3.08;;
37955;SDS011;23776;51.592;7.180;2024-02-14T12:27:57;9.38;;;3.63;;
37955;SDS011;23776;51.592;7.180;2024-02-14T12:30:23;5.45;;;2.60;;
37955;SDS011;23776;51.592;7.180;2024-02-14T12:33:21;6.70;;;2.70;;
37955;SDS011;23776;51.592;7.180;2024-02-14T12:35:47;7.85;;;3.38;;
37955;SDS011;23776;51.592;7.180;2024-02-14T12:38:14;7.13;;;3.42;;
37955;SDS011;23776;51.592;7.180;2024-02-14T12:40:40;6.95;;;3.03;;
37955;SDS011;23776;51.592;7.180;2024-02-14T12:43:07;8.05;;;2.83;;
37955;SDS011;23776;51.592;7.180;2024-02-14T12:45:33;10.80;;;3.47;;
37955;SDS011;23776;51.592;7.180;2024-02-14T12:47:59;14.50;;;3.45;;
37955;SDS011;23776;51.592;7.180;2024-02-14T12:50:24;8.95;;;3.58;;
37955;SDS011;23776;51.592;7.180;2024-02-14T12:52:50;8.85;;;3.05;;
37955;SDS011;23776;51.592;7.180;2024-02-14T12:55:16;9.90;;;2.85;;
37955;SDS011;23776;51.592;7.180;2024-02-14T12:57:43;14.75;;;3.08;;
37955;SDS011;23776;51.592;7.180;2024-02-14T13:00:09;7.32;;;2.60;;
37955;SDS011;23776;51.592;7.180;2024-02-14T13:02:36;13.23;;;2.83;;
37955;SDS011;23776;51.592;7.180;2024-02-14T13:05:03;6.75;;;2.20;;
37955;SDS011;23776;51.592;7.180;2024-02-14T13:07:29;5.15;;;2.22;;
37955;SDS011;23776;51.592;7.180;2024-02-14T13:09:59;4.10;;;2.35;;
37955;SDS011;23776;51.592;7.180;2024-02-14T13:12:25;7.90;;;2.40;;
37955;SDS011;23776;51.592;7.180;2024-02-14T13:14:51;5.90;;;2.25;;
37955;SDS011;23776;51.592;7.180;2024-02-14T13:17:16;8.05;;;2.63;;
37955;SDS011;23776;51.592;7.180;2024-02-14T13:19:42;7.78;;;2.35;;
37955;SDS011;23776;51.592;7.180;2024-02-14T13:22:08;6.00;;;2.80;;
37955;SDS011;23776;51.592;7.180;2024-02-14T13:24:34;7.82;;;2.10;;
37955;SDS011;23776;51.592;7.180;2024-02-14T13:26:59;3.85;;;2.00;;
37955;SDS011;23776;51.592;7.180;2024-02-14T13:29:25;4.82;;;2.00;;
37955;SDS011;23776;51.592;7.180;2024-02-14T13:31:51;4.50;;;2.38;;
37955;SDS011;23776;51.592;7.180;2024-02-14T13:34:17;3.97;;;2.08;;
37955;SDS011;23776;51.592;7.180;2024-02-14T13:36:44;4.03;;;2.17;;
37955;SDS011;23776;51.592;7.180;2024-02-14T13:39:12;3.85;;;2.42;;
37955;SDS011;23776;51.592;7.180;2024-02-14T13:41:38;4.35;;;1.80;;
37955;SDS011;23776;51.592;7.180;2024-02-14T13:44:06;5.50;;;2.28;;
37955;SDS011;23776;51.592;7.180;2024-02-14T13:46:31;5.15;;;2.42;;
37955;SDS011;23776;51.592;7.180;2024-02-14T13:48:57;6.25;;;2.45;;
37955;SDS011;23776;51.592;7.180;2024-02-14T13:51:23;5.10;;;2.40;;
37955;SDS011;23776;51.592;7.180;2024-02-14T13:53:48;8.38;;;4.07;;
37955;SDS011;23776;51.592;7.180;2024-02-14T13:56:14;5.22;;;2.35;;
37955;SDS011;23776;51.592;7.180;2024-02-14T13:58:41;6.68;;;2.70;;
37955;SDS011;23776;51.592;7.180;2024-02-14T14:01:06;4.43;;;2.58;;
37955;SDS011;23776;51.592;7.180;2024-02-14T14:03:32;4.35;;;2.22;;
37955;SDS011;23776;51.592;7.180;2024-02-14T14:06:01;5.07;;;2.33;;
37955;SDS011;23776;51.592;7.180;2024-02-14T14:08:27;3.95;;;2.28;;
37955;SDS011;23776;51.592;7.180;2024-02-14T14:10:53;7.90;;;2.53;;
37955;SDS011;23776;51.592;7.180;2024-02-14T14:13:19;4.43;;;1.92;;
37955;SDS011;23776;51.592;7.180;2024-02-14T14:15:45;7.22;;;2.30;;
37955;SDS011;23776;51.592;7.180;2024-02-14T14:18:10;6.63;;;2.20;;
37955;SDS011;23776;51.592;7.180;2024-02-14T14:20:36;6.28;;;2.30;;
37955;SDS011;23776;51.592;7.180;2024-02-14T14:23:01;6.70;;;2.05;;
37955;SDS011;23776;51.592;7.180;2024-02-14T14:25:28;5.80;;;2.40;;
37955;SDS011;23776;51.592;7.180;2024-02-14T14:27:55;7.25;;;2.15;;
37955;SDS011;23776;51.592;7.180;2024-02-14T14:30:22;7.25;;;2.50;;
37955;SDS011;23776;51.592;7.180;2024-02-14T14:32:48;10.07;;;4.38;;
37955;SDS011;23776;51.592;7.180;2024-02-14T14:35:14;7.53;;;2.17;;
37955;SDS011;23776;51.592;7.180;2024-02-14T14:37:40;8.68;;;2.70;;
37955;SDS011;23776;51.592;7.180;2024-02-14T14:40:05;7.40;;;2.00;;
37955;SDS011;23776;51.592;7.180;2024-02-14T14:42:33;8.80;;;2.70;;